Obera, Argentina
Current Conditions -  °F | °C
As of 4:00 PM on Wednesday 17 Dec 2014 (Local Time) from SARP Reporting Station
Overcast Overcast  
Wind Chill: 25°   Ceiling: 2000
Heat Index: 26°   Visibility: 6mi
Dew Point: 22°   Wind: 0mph
Humidity: 83%   Direction: NA
Pressure: 29.85"   Gusts: NA
Location:  27.48°S, 55.13°W
Report Text: SARP 171900Z 00000KT 9999 BKN020 BKN080 OVC200 25/22 Q1011
Loading
Personal Weather Stations






























Interactive Weather Map New forecast layout! Learn more

10-Day Weather Forecast

Advertisements
Track Severe Weather on mobile